sensor_id;sensor_type;location;lat;lon;timestamp;temperature;humidity
431;DHT22;202;48.764;9.172;2023-02-19T00:43:26;12.60;57.50
431;DHT22;202;48.764;9.172;2023-02-19T00:53:24;12.70;57.70
431;DHT22;202;48.764;9.172;2023-02-19T00:57:14;12.60;56.80
431;DHT22;202;48.764;9.172;2023-02-19T01:00:24;12.70;57.00
431;DHT22;202;48.764;9.172;2023-02-19T01:05:56;12.70;56.40
431;DHT22;202;48.764;9.172;2023-02-19T01:08:23;12.70;56.30
431;DHT22;202;48.764;9.172;2023-02-19T01:10:50;12.60;57.20
431;DHT22;202;48.764;9.172;2023-02-19T01:13:17;12.60;57.50
431;DHT22;202;48.764;9.172;2023-02-19T01:15:46;12.60;57.10
431;DHT22;202;48.764;9.172;2023-02-19T01:18:12;12.60;56.70
431;DHT22;202;48.764;9.172;2023-02-19T01:20:41;12.50;57.70
431;DHT22;202;48.764;9.172;2023-02-19T01:23:10;12.60;56.90
431;DHT22;202;48.764;9.172;2023-02-19T01:25:37;12.70;56.40
431;DHT22;202;48.764;9.172;2023-02-19T01:28:05;12.70;56.60
431;DHT22;202;48.764;9.172;2023-02-19T01:30:33;12.70;56.50
431;DHT22;202;48.764;9.172;2023-02-19T01:33:03;12.70;56.40
431;DHT22;202;48.764;9.172;2023-02-19T01:35:29;12.70;55.70
431;DHT22;202;48.764;9.172;2023-02-19T01:37:56;12.80;55.80
431;DHT22;202;48.764;9.172;2023-02-19T01:40:23;12.60;55.70
431;DHT22;202;48.764;9.172;2023-02-19T01:42:50;12.70;56.10
431;DHT22;202;48.764;9.172;2023-02-19T01:45:22;12.70;56.00
431;DHT22;202;48.764;9.172;2023-02-19T01:48:05;12.70;56.10
431;DHT22;202;48.764;9.172;2023-02-19T01:50:37;12.70;55.80
431;DHT22;202;48.764;9.172;2023-02-19T01:53:06;12.70;55.70
431;DHT22;202;48.764;9.172;2023-02-19T01:55:34;12.70;55.70
431;DHT22;202;48.764;9.172;2023-02-19T01:58:02;12.70;55.70
431;DHT22;202;48.764;9.172;2023-02-19T02:00:29;12.70;55.70
431;DHT22;202;48.764;9.172;2023-02-19T02:02:58;12.60;55.60
431;DHT22;202;48.764;9.172;2023-02-19T02:05:40;12.60;55.70
431;DHT22;202;48.764;9.172;2023-02-19T02:08:07;12.60;55.80
431;DHT22;202;48.764;9.172;2023-02-19T02:10:53;12.60;56.10
431;DHT22;202;48.764;9.172;2023-02-19T02:13:21;12.50;56.60
431;DHT22;202;48.764;9.172;2023-02-19T02:15:52;12.50;57.10
431;DHT22;202;48.764;9.172;2023-02-19T02:18:29;12.50;56.40
431;DHT22;202;48.764;9.172;2023-02-19T02:23:55;12.60;57.00
431;DHT22;202;48.764;9.172;2023-02-19T02:24:58;12.50;57.10
431;DHT22;202;48.764;9.172;2023-02-19T02:27:42;12.40;58.90
431;DHT22;202;48.764;9.172;2023-02-19T02:30:36;12.30;60.00
431;DHT22;202;48.764;9.172;2023-02-19T02:33:13;12.20;61.80
431;DHT22;202;48.764;9.172;2023-02-19T02:35:46;12.10;64.80
431;DHT22;202;48.764;9.172;2023-02-19T02:38:14;12.10;64.80
431;DHT22;202;48.764;9.172;2023-02-19T02:40:44;12.10;64.80
431;DHT22;202;48.764;9.172;2023-02-19T02:43:11;12.10;65.40
431;DHT22;202;48.764;9.172;2023-02-19T02:45:39;12.10;65.90
431;DHT22;202;48.764;9.172;2023-02-19T02:48:13;12.10;64.90
431;DHT22;202;48.764;9.172;2023-02-19T02:50:44;12.10;65.00
431;DHT22;202;48.764;9.172;2023-02-19T02:53:16;12.00;64.70
431;DHT22;202;48.764;9.172;2023-02-19T02:56:02;12.10;65.20
431;DHT22;202;48.764;9.172;2023-02-19T02:58:31;12.10;63.60
431;DHT22;202;48.764;9.172;2023-02-19T03:01:05;12.10;64.20
431;DHT22;202;48.764;9.172;2023-02-19T03:03:54;12.20;63.30
431;DHT22;202;48.764;9.172;2023-02-19T03:06:24;12.20;62.70
431;DHT22;202;48.764;9.172;2023-02-19T03:08:58;12.10;62.90
431;DHT22;202;48.764;9.172;2023-02-19T03:11:28;12.10;62.90
431;DHT22;202;48.764;9.172;2023-02-19T03:14:17;12.10;63.60
431;DHT22;202;48.764;9.172;2023-02-19T03:17:07;12.10;64.80
431;DHT22;202;48.764;9.172;2023-02-19T03:19:56;12.00;64.90
431;DHT22;202;48.764;9.172;2023-02-19T03:22:26;12.00;66.90
431;DHT22;202;48.764;9.172;2023-02-19T03:24:57;11.90;68.20
431;DHT22;202;48.764;9.172;2023-02-19T03:27:41;11.90;69.40
431;DHT22;202;48.764;9.172;2023-02-19T03:30:12;11.90;69.80
431;DHT22;202;48.764;9.172;2023-02-19T03:32:45;11.90;70.20
431;DHT22;202;48.764;9.172;2023-02-19T03:35:16;11.90;70.50
431;DHT22;202;48.764;9.172;2023-02-19T03:37:48;11.90;70.80
431;DHT22;202;48.764;9.172;2023-02-19T03:40:16;11.90;70.80
431;DHT22;202;48.764;9.172;2023-02-19T03:42:52;12.00;70.90
431;DHT22;202;48.764;9.172;2023-02-19T03:45:35;12.00;70.50
431;DHT22;202;48.764;9.172;2023-02-19T03:48:20;11.90;70.90
431;DHT22;202;48.764;9.172;2023-02-19T03:50:54;11.90;71.40
431;DHT22;202;48.764;9.172;2023-02-19T03:53:28;11.90;71.80
431;DHT22;202;48.764;9.172;2023-02-19T03:56:05;11.80;73.00
431;DHT22;202;48.764;9.172;2023-02-19T03:58:40;11.70;73.80
431;DHT22;202;48.764;9.172;2023-02-19T04:01:12;11.70;73.60
431;DHT22;202;48.764;9.172;2023-02-19T04:03:45;11.70;74.00
431;DHT22;202;48.764;9.172;2023-02-19T04:06:18;11.80;73.30
431;DHT22;202;48.764;9.172;2023-02-19T04:08:48;11.80;73.30
431;DHT22;202;48.764;9.172;2023-02-19T04:11:17;11.90;72.80
431;DHT22;202;48.764;9.172;2023-02-19T04:13:49;11.80;72.40
431;DHT22;202;48.764;9.172;2023-02-19T04:16:19;11.80;72.50
431;DHT22;202;48.764;9.172;2023-02-19T04:18:51;11.80;72.00
431;DHT22;202;48.764;9.172;2023-02-19T04:21:21;11.80;71.60
431;DHT22;202;48.764;9.172;2023-02-19T04:23:48;11.80;71.80
431;DHT22;202;48.764;9.172;2023-02-19T04:26:16;11.90;70.90
431;DHT22;202;48.764;9.172;2023-02-19T04:28:45;11.90;71.30
431;DHT22;202;48.764;9.172;2023-02-19T04:31:12;12.00;70.90
431;DHT22;202;48.764;9.172;2023-02-19T04:33:39;12.00;69.50
431;DHT22;202;48.764;9.172;2023-02-19T04:36:09;11.90;69.40
431;DHT22;202;48.764;9.172;2023-02-19T04:38:36;11.90;69.40
431;DHT22;202;48.764;9.172;2023-02-19T04:41:03;11.90;69.40
431;DHT22;202;48.764;9.172;2023-02-19T04:43:30;11.80;70.80
431;DHT22;202;48.764;9.172;2023-02-19T04:45:59;11.80;69.70
431;DHT22;202;48.764;9.172;2023-02-19T04:48:26;11.80;70.20
431;DHT22;202;48.764;9.172;2023-02-19T04:50:53;11.90;69.90
431;DHT22;202;48.764;9.172;2023-02-19T04:53:21;11.90;69.80
431;DHT22;202;48.764;9.172;2023-02-19T04:55:48;11.90;69.40
431;DHT22;202;48.764;9.172;2023-02-19T04:58:18;12.00;69.50
431;DHT22;202;48.764;9.172;2023-02-19T05:00:45;12.00;69.50
431;DHT22;202;48.764;9.172;2023-02-19T05:03:11;12.00;69.50
431;DHT22;202;48.764;9.172;2023-02-19T05:05:38;12.00;68.60
431;DHT22;202;48.764;9.172;2023-02-19T05:08:05;12.00;68.30
431;DHT22;202;48.764;9.172;2023-02-19T05:10:34;12.00;69.10
431;DHT22;202;48.764;9.172;2023-02-19T05:13:01;11.90;68.70
431;DHT22;202;48.764;9.172;2023-02-19T05:15:27;11.90;67.20
431;DHT22;202;48.764;9.172;2023-02-19T05:17:54;12.00;65.40
431;DHT22;202;48.764;9.172;2023-02-19T05:20:21;11.80;67.00
431;DHT22;202;48.764;9.172;2023-02-19T05:22:48;11.90;67.00
431;DHT22;202;48.764;9.172;2023-02-19T05:25:15;11.80;67.70
431;DHT22;202;48.764;9.172;2023-02-19T05:27:52;11.90;67.70
431;DHT22;202;48.764;9.172;2023-02-19T05:30:40;11.80;67.70
431;DHT22;202;48.764;9.172;2023-02-19T05:33:09;11.90;67.80
431;DHT22;202;48.764;9.172;2023-02-19T05:35:40;11.90;67.70
431;DHT22;202;48.764;9.172;2023-02-19T05:38:10;11.90;67.40
431;DHT22;202;48.764;9.172;2023-02-19T05:40:37;11.90;66.40
431;DHT22;202;48.764;9.172;2023-02-19T05:43:06;12.00;65.20
431;DHT22;202;48.764;9.172;2023-02-19T05:45:34;11.90;64.60
431;DHT22;202;48.764;9.172;2023-02-19T05:48:01;11.90;64.40
431;DHT22;202;48.764;9.172;2023-02-19T05:50:29;12.00;63.70
431;DHT22;202;48.764;9.172;2023-02-19T05:52:58;11.90;64.50
431;DHT22;202;48.764;9.172;2023-02-19T05:55:25;12.00;63.80
431;DHT22;202;48.764;9.172;2023-02-19T05:57:52;11.90;63.30
431;DHT22;202;48.764;9.172;2023-02-19T06:00:21;11.80;61.80
431;DHT22;202;48.764;9.172;2023-02-19T06:02:52;11.80;60.70
431;DHT22;202;48.764;9.172;2023-02-19T06:05:33;11.70;62.50
431;DHT22;202;48.764;9.172;2023-02-19T06:08:00;11.80;62.20
431;DHT22;202;48.764;9.172;2023-02-19T06:10:27;11.80;62.60
431;DHT22;202;48.764;9.172;2023-02-19T06:12:54;11.80;62.60
431;DHT22;202;48.764;9.172;2023-02-19T06:15:22;11.80;62.60
431;DHT22;202;48.764;9.172;2023-02-19T06:17:49;11.80;62.00
431;DHT22;202;48.764;9.172;2023-02-19T06:20:16;11.90;62.80
431;DHT22;202;48.764;9.172;2023-02-19T06:22:43;11.90;62.90
431;DHT22;202;48.764;9.172;2023-02-19T06:25:10;11.90;62.40
431;DHT22;202;48.764;9.172;2023-02-19T06:27:37;11.80;62.00
431;DHT22;202;48.764;9.172;2023-02-19T06:30:05;11.80;62.70
431;DHT22;202;48.764;9.172;2023-02-19T06:32:34;11.70;60.20
431;DHT22;202;48.764;9.172;2023-02-19T06:35:01;11.60;60.50
431;DHT22;202;48.764;9.172;2023-02-19T06:37:29;11.50;61.20
431;DHT22;202;48.764;9.172;2023-02-19T06:39:56;11.50;61.40
431;DHT22;202;48.764;9.172;2023-02-19T06:42:23;11.50;60.00
431;DHT22;202;48.764;9.172;2023-02-19T06:44:50;11.50;61.40
431;DHT22;202;48.764;9.172;2023-02-19T06:47:17;11.40;59.80
431;DHT22;202;48.764;9.172;2023-02-19T06:49:45;11.30;60.30
431;DHT22;202;48.764;9.172;2023-02-19T06:52:12;11.40;60.50
431;DHT22;202;48.764;9.172;2023-02-19T06:54:39;11.40;59.20
431;DHT22;202;48.764;9.172;2023-02-19T06:57:06;11.40;59.20
431;DHT22;202;48.764;9.172;2023-02-19T06:59:33;11.50;59.20
431;DHT22;202;48.764;9.172;2023-02-19T07:02:00;11.50;58.10
431;DHT22;202;48.764;9.172;2023-02-19T07:04:26;11.50;58.00
431;DHT22;202;48.764;9.172;2023-02-19T07:06:57;11.50;55.90
431;DHT22;202;48.764;9.172;2023-02-19T07:14:51;11.40;56.60
431;DHT22;202;48.764;9.172;2023-02-19T07:16:22;11.50;56.60
431;DHT22;202;48.764;9.172;2023-02-19T07:18:49;11.40;56.70
431;DHT22;202;48.764;9.172;2023-02-19T07:21:31;11.40;57.90
431;DHT22;202;48.764;9.172;2023-02-19T07:24:28;11.40;58.70
431;DHT22;202;48.764;9.172;2023-02-19T07:27:12;11.50;57.70
431;DHT22;202;48.764;9.172;2023-02-19T07:30:39;11.50;57.00
431;DHT22;202;48.764;9.172;2023-02-19T07:33:20;11.40;58.00
431;DHT22;202;48.764;9.172;2023-02-19T07:56:25;11.30;54.60
431;DHT22;202;48.764;9.172;2023-02-19T07:58:56;11.40;53.20
431;DHT22;202;48.764;9.172;2023-02-19T08:01:35;11.30;52.80
431;DHT22;202;48.764;9.172;2023-02-19T08:10:09;11.40;53.10
431;DHT22;202;48.764;9.172;2023-02-19T08:12:56;11.40;53.40
431;DHT22;202;48.764;9.172;2023-02-19T08:15:39;11.60;53.40
431;DHT22;202;48.764;9.172;2023-02-19T08:18:06;11.70;51.30
431;DHT22;202;48.764;9.172;2023-02-19T08:20:33;11.70;51.30
431;DHT22;202;48.764;9.172;2023-02-19T08:23:01;11.70;51.70
431;DHT22;202;48.764;9.172;2023-02-19T08:25:28;11.60;50.30
431;DHT22;202;48.764;9.172;2023-02-19T08:27:56;11.70;50.90
431;DHT22;202;48.764;9.172;2023-02-19T08:30:26;11.60;52.00
431;DHT22;202;48.764;9.172;2023-02-19T08:32:54;11.70;52.70
431;DHT22;202;48.764;9.172;2023-02-19T08:35:21;11.60;52.90
431;DHT22;202;48.764;9.172;2023-02-19T08:37:48;11.60;54.00
431;DHT22;202;48.764;9.172;2023-02-19T08:40:15;11.70;54.80
431;DHT22;202;48.764;9.172;2023-02-19T08:42:42;11.80;53.80
431;DHT22;202;48.764;9.172;2023-02-19T08:45:10;11.80;52.70
431;DHT22;202;48.764;9.172;2023-02-19T08:47:37;11.80;53.00
431;DHT22;202;48.764;9.172;2023-02-19T08:50:05;11.80;53.20
431;DHT22;202;48.764;9.172;2023-02-19T08:52:33;11.90;53.20
431;DHT22;202;48.764;9.172;2023-02-19T08:55:00;11.90;53.00
431;DHT22;202;48.764;9.172;2023-02-19T08:57:27;11.80;52.90
431;DHT22;202;48.764;9.172;2023-02-19T08:59:55;11.80;54.40
431;DHT22;202;48.764;9.172;2023-02-19T09:02:23;11.80;52.90
431;DHT22;202;48.764;9.172;2023-02-19T09:04:50;11.70;53.50
431;DHT22;202;48.764;9.172;2023-02-19T09:07:18;11.70;52.70
431;DHT22;202;48.764;9.172;2023-02-19T09:09:46;11.60;53.30
431;DHT22;202;48.764;9.172;2023-02-19T09:12:15;11.50;53.50
431;DHT22;202;48.764;9.172;2023-02-19T09:14:43;11.50;54.50
431;DHT22;202;48.764;9.172;2023-02-19T09:17:11;11.60;55.40
431;DHT22;202;48.764;9.172;2023-02-19T09:19:39;11.50;53.20
431;DHT22;202;48.764;9.172;2023-02-19T09:22:06;11.50;52.60
431;DHT22;202;48.764;9.172;2023-02-19T09:24:33;11.60;52.70
431;DHT22;202;48.764;9.172;2023-02-19T09:27:00;11.60;52.50
431;DHT22;202;48.764;9.172;2023-02-19T09:29:27;11.70;52.20
431;DHT22;202;48.764;9.172;2023-02-19T09:32:02;11.80;50.40
431;DHT22;202;48.764;9.172;2023-02-19T09:34:28;11.90;50.80
431;DHT22;202;48.764;9.172;2023-02-19T09:36:57;11.80;49.50
431;DHT22;202;48.764;9.172;2023-02-19T09:39:24;11.90;49.20
431;DHT22;202;48.764;9.172;2023-02-19T09:41:51;11.90;48.40
431;DHT22;202;48.764;9.172;2023-02-19T09:44:23;11.90;47.80
431;DHT22;202;48.764;9.172;2023-02-19T09:46:52;11.80;46.60
431;DHT22;202;48.764;9.172;2023-02-19T09:49:23;11.80;46.60
431;DHT22;202;48.764;9.172;2023-02-19T09:51:58;11.80;46.20
431;DHT22;202;48.764;9.172;2023-02-19T09:54:29;11.80;46.70
431;DHT22;202;48.764;9.172;2023-02-19T09:57:00;11.80;46.50
431;DHT22;202;48.764;9.172;2023-02-19T09:59:40;11.80;46.40
431;DHT22;202;48.764;9.172;2023-02-19T10:02:13;11.90;45.40
431;DHT22;202;48.764;9.172;2023-02-19T10:04:42;11.90;45.40
431;DHT22;202;48.764;9.172;2023-02-19T10:07:11;12.00;46.20
431;DHT22;202;48.764;9.172;2023-02-19T10:09:40;12.20;45.50
431;DHT22;202;48.764;9.172;2023-02-19T10:12:13;12.20;44.40
431;DHT22;202;48.764;9.172;2023-02-19T10:14:45;12.20;43.90
431;DHT22;202;48.764;9.172;2023-02-19T10:17:20;12.30;43.70
431;DHT22;202;48.764;9.172;2023-02-19T10:19:49;12.30;44.20
431;DHT22;202;48.764;9.172;2023-02-19T10:22:19;12.30;43.90
431;DHT22;202;48.764;9.172;2023-02-19T10:24:49;12.40;44.60
431;DHT22;202;48.764;9.172;2023-02-19T10:27:17;12.40;44.10
431;DHT22;202;48.764;9.172;2023-02-19T10:29:53;12.50;44.00
431;DHT22;202;48.764;9.172;2023-02-19T10:32:22;12.60;44.20
431;DHT22;202;48.764;9.172;2023-02-19T10:35:06;12.60;43.90
431;DHT22;202;48.764;9.172;2023-02-19T10:37:35;12.70;44.00
431;DHT22;202;48.764;9.172;2023-02-19T10:40:13;12.60;44.10
431;DHT22;202;48.764;9.172;2023-02-19T10:42:44;12.50;44.80
431;DHT22;202;48.764;9.172;2023-02-19T10:45:18;12.50;45.90
431;DHT22;202;48.764;9.172;2023-02-19T10:47:47;12.50;44.70
431;DHT22;202;48.764;9.172;2023-02-19T10:50:25;12.50;44.80
431;DHT22;202;48.764;9.172;2023-02-19T10:53:02;12.60;44.80
431;DHT22;202;48.764;9.172;2023-02-19T10:55:34;12.70;45.00
431;DHT22;202;48.764;9.172;2023-02-19T10:59:12;12.70;44.30
431;DHT22;202;48.764;9.172;2023-02-19T11:02:30;12.70;44.00
431;DHT22;202;48.764;9.172;2023-02-19T11:08:50;12.80;42.60
431;DHT22;202;48.764;9.172;2023-02-19T11:11:23;12.60;43.20
431;DHT22;202;48.764;9.172;2023-02-19T11:13:53;12.80;43.30
431;DHT22;202;48.764;9.172;2023-02-19T11:16:20;12.80;42.30
431;DHT22;202;48.764;9.172;2023-02-19T11:18:53;12.80;42.50
431;DHT22;202;48.764;9.172;2023-02-19T11:21:26;12.90;41.70
431;DHT22;202;48.764;9.172;2023-02-19T11:23:59;12.90;42.40
431;DHT22;202;48.764;9.172;2023-02-19T11:26:32;12.80;41.70
431;DHT22;202;48.764;9.172;2023-02-19T11:29:16;12.80;42.00
431;DHT22;202;48.764;9.172;2023-02-19T11:31:44;12.80;42.40
431;DHT22;202;48.764;9.172;2023-02-19T11:34:25;12.80;41.90
431;DHT22;202;48.764;9.172;2023-02-19T11:37:20;12.90;41.30
431;DHT22;202;48.764;9.172;2023-02-19T11:39:49;13.00;41.70
431;DHT22;202;48.764;9.172;2023-02-19T11:42:45;12.90;41.30
431;DHT22;202;48.764;9.172;2023-02-19T11:45:39;13.00;41.40
431;DHT22;202;48.764;9.172;2023-02-19T11:48:24;12.90;42.10
431;DHT22;202;48.764;9.172;2023-02-19T11:51:09;12.70;43.80
431;DHT22;202;48.764;9.172;2023-02-19T11:53:44;12.60;43.70
431;DHT22;202;48.764;9.172;2023-02-19T11:56:17;12.60;44.60
431;DHT22;202;48.764;9.172;2023-02-19T11:58:59;12.60;44.50
431;DHT22;202;48.764;9.172;2023-02-19T12:01:43;12.80;44.20
431;DHT22;202;48.764;9.172;2023-02-19T12:04:40;12.80;42.60
431;DHT22;202;48.764;9.172;2023-02-19T12:07:21;13.00;43.00
431;DHT22;202;48.764;9.172;2023-02-19T12:10:00;12.90;42.00
431;DHT22;202;48.764;9.172;2023-02-19T12:12:40;12.90;42.10
431;DHT22;202;48.764;9.172;2023-02-19T12:15:34;12.90;42.00
431;DHT22;202;48.764;9.172;2023-02-19T12:18:21;12.90;41.30
431;DHT22;202;48.764;9.172;2023-02-19T12:20:57;12.80;40.80
431;DHT22;202;48.764;9.172;2023-02-19T12:23:46;12.70;41.10
431;DHT22;202;48.764;9.172;2023-02-19T12:26:39;12.80;41.20
431;DHT22;202;48.764;9.172;2023-02-19T12:29:49;12.90;41.30
431;DHT22;202;48.764;9.172;2023-02-19T12:32:49;13.00;40.50
431;DHT22;202;48.764;9.172;2023-02-19T12:42:40;13.10;40.60
431;DHT22;202;48.764;9.172;2023-02-19T12:45:17;13.20;41.40
431;DHT22;202;48.764;9.172;2023-02-19T12:47:56;13.20;40.80
431;DHT22;202;48.764;9.172;2023-02-19T12:50:26;13.30;39.60
431;DHT22;202;48.764;9.172;2023-02-19T12:53:01;13.50;40.20
431;DHT22;202;48.764;9.172;2023-02-19T12:55:46;13.50;39.70
431;DHT22;202;48.764;9.172;2023-02-19T12:58:23;13.40;39.40
431;DHT22;202;48.764;9.172;2023-02-19T13:00:58;13.40;39.10
431;DHT22;202;48.764;9.172;2023-02-19T13:03:31;13.40;39.40
431;DHT22;202;48.764;9.172;2023-02-19T13:06:04;13.50;39.10
431;DHT22;202;48.764;9.172;2023-02-19T13:08:43;13.50;38.80
431;DHT22;202;48.764;9.172;2023-02-19T13:17:26;13.40;38.70
431;DHT22;202;48.764;9.172;2023-02-19T13:20:09;13.40;38.60
431;DHT22;202;48.764;9.172;2023-02-19T13:22:44;13.30;39.20
431;DHT22;202;48.764;9.172;2023-02-19T13:25:38;13.30;38.80
431;DHT22;202;48.764;9.172;2023-02-19T13:28:24;13.20;39.30
431;DHT22;202;48.764;9.172;2023-02-19T13:31:17;13.10;39.10
431;DHT22;202;48.764;9.172;2023-02-19T13:34:04;13.10;40.50
431;DHT22;202;48.764;9.172;2023-02-19T13:36:38;13.10;39.70
431;DHT22;202;48.764;9.172;2023-02-19T13:39:12;13.00;39.90
431;DHT22;202;48.764;9.172;2023-02-19T13:41:48;13.00;39.70
431;DHT22;202;48.764;9.172;2023-02-19T13:44:17;13.00;39.70
431;DHT22;202;48.764;9.172;2023-02-19T13:46:49;12.90;39.50
431;DHT22;202;48.764;9.172;2023-02-19T13:49:44;12.90;39.60
431;DHT22;202;48.764;9.172;2023-02-19T13:52:34;12.80;40.10
431;DHT22;202;48.764;9.172;2023-02-19T14:04:42;12.80;40.20
431;DHT22;202;48.764;9.172;2023-02-19T14:07:34;12.80;40.50
431;DHT22;202;48.764;9.172;2023-02-19T14:10:02;12.80;40.60
431;DHT22;202;48.764;9.172;2023-02-19T14:12:31;12.80;41.00
431;DHT22;202;48.764;9.172;2023-02-19T14:17:59;12.70;39.90
431;DHT22;202;48.764;9.172;2023-02-19T14:20:40;12.70;40.40
431;DHT22;202;48.764;9.172;2023-02-19T14:23:15;12.60;39.90
431;DHT22;202;48.764;9.172;2023-02-19T14:25:52;12.60;40.20
431;DHT22;202;48.764;9.172;2023-02-19T14:28:42;12.60;40.10
431;DHT22;202;48.764;9.172;2023-02-19T14:31:17;12.70;40.30
431;DHT22;202;48.764;9.172;2023-02-19T14:33:47;12.70;39.70
431;DHT22;202;48.764;9.172;2023-02-19T14:36:37;12.70;39.80
431;DHT22;202;48.764;9.172;2023-02-19T14:39:16;12.80;40.00
431;DHT22;202;48.764;9.172;2023-02-19T14:41:47;12.90;40.20
431;DHT22;202;48.764;9.172;2023-02-19T14:44:17;13.00;39.70
431;DHT22;202;48.764;9.172;2023-02-19T14:46:54;13.00;39.30
431;DHT22;202;48.764;9.172;2023-02-19T14:49:26;13.00;39.70
431;DHT22;202;48.764;9.172;2023-02-19T14:51:57;13.00;39.40
431;DHT22;202;48.764;9.172;2023-02-19T14:54:39;13.10;38.90
431;DHT22;202;48.764;9.172;2023-02-19T14:57:12;13.10;38.70
431;DHT22;202;48.764;9.172;2023-02-19T14:59:51;13.10;38.90
431;DHT22;202;48.764;9.172;2023-02-19T15:02:18;13.10;38.50
431;DHT22;202;48.764;9.172;2023-02-19T15:04:46;13.10;38.70
431;DHT22;202;48.764;9.172;2023-02-19T15:07:16;13.10;39.10
431;DHT22;202;48.764;9.172;2023-02-19T15:09:49;13.10;38.60
431;DHT22;202;48.764;9.172;2023-02-19T15:12:19;13.00;38.80
431;DHT22;202;48.764;9.172;2023-02-19T15:14:49;13.00;39.40
431;DHT22;202;48.764;9.172;2023-02-19T15:17:23;13.00;38.60
431;DHT22;202;48.764;9.172;2023-02-19T15:19:51;13.00;39.20
431;DHT22;202;48.764;9.172;2023-02-19T15:22:20;13.00;39.20
431;DHT22;202;48.764;9.172;2023-02-19T15:24:49;12.90;39.40
431;DHT22;202;48.764;9.172;2023-02-19T15:27:18;12.90;39.40
431;DHT22;202;48.764;9.172;2023-02-19T15:29:47;12.90;39.70
431;DHT22;202;48.764;9.172;2023-02-19T15:32:16;13.00;39.90
431;DHT22;202;48.764;9.172;2023-02-19T15:34:56;13.00;39.70
431;DHT22;202;48.764;9.172;2023-02-19T15:37:29;13.00;40.00
431;DHT22;202;48.764;9.172;2023-02-19T15:40:04;13.00;40.00
431;DHT22;202;48.764;9.172;2023-02-19T15:42:38;13.00;40.10
431;DHT22;202;48.764;9.172;2023-02-19T15:45:19;12.90;40.20
431;DHT22;202;48.764;9.172;2023-02-19T17:44:36;11.90;48.70
431;DHT22;202;48.764;9.172;2023-02-19T17:47:03;11.90;48.70
431;DHT22;202;48.764;9.172;2023-02-19T17:49:30;11.90;48.90
431;DHT22;202;48.764;9.172;2023-02-19T17:52:01;11.90;48.60
431;DHT22;202;48.764;9.172;2023-02-19T17:54:39;12.00;48.50
431;DHT22;202;48.764;9.172;2023-02-19T17:57:11;12.00;48.20
431;DHT22;202;48.764;9.172;2023-02-19T17:59:45;12.10;48.10
431;DHT22;202;48.764;9.172;2023-02-19T18:02:17;12.10;47.10
431;DHT22;202;48.764;9.172;2023-02-19T18:04:48;12.00;47.40
431;DHT22;202;48.764;9.172;2023-02-19T18:07:15;12.00;47.40
431;DHT22;202;48.764;9.172;2023-02-19T18:09:44;12.00;47.30
431;DHT22;202;48.764;9.172;2023-02-19T18:12:11;12.00;46.90
431;DHT22;202;48.764;9.172;2023-02-19T18:14:38;12.00;46.80
431;DHT22;202;48.764;9.172;2023-02-19T18:20:21;12.00;46.90
431;DHT22;202;48.764;9.172;2023-02-19T18:22:53;11.90;46.50
431;DHT22;202;48.764;9.172;2023-02-19T18:25:29;11.90;47.00
431;DHT22;202;48.764;9.172;2023-02-19T18:28:04;11.90;47.00
431;DHT22;202;48.764;9.172;2023-02-19T18:30:34;11.90;47.30
431;DHT22;202;48.764;9.172;2023-02-19T18:33:12;11.90;46.80
431;DHT22;202;48.764;9.172;2023-02-19T18:35:53;12.00;46.70
431;DHT22;202;48.764;9.172;2023-02-19T18:38:26;12.00;46.70
431;DHT22;202;48.764;9.172;2023-02-19T18:41:12;12.00;46.40
431;DHT22;202;48.764;9.172;2023-02-19T18:43:49;12.00;46.10
431;DHT22;202;48.764;9.172;2023-02-19T18:46:27;12.00;45.80
431;DHT22;202;48.764;9.172;2023-02-19T18:49:02;12.10;45.50
431;DHT22;202;48.764;9.172;2023-02-19T18:51:36;12.00;45.50
431;DHT22;202;48.764;9.172;2023-02-19T18:54:10;12.00;45.50
431;DHT22;202;48.764;9.172;2023-02-19T18:56:41;12.00;45.50
431;DHT22;202;48.764;9.172;2023-02-19T18:59:18;12.00;45.50
431;DHT22;202;48.764;9.172;2023-02-19T19:01:48;12.10;45.50
431;DHT22;202;48.764;9.172;2023-02-19T19:04:25;12.10;45.50
431;DHT22;202;48.764;9.172;2023-02-19T19:06:59;12.00;45.50
431;DHT22;202;48.764;9.172;2023-02-19T19:09:29;12.00;45.50
431;DHT22;202;48.764;9.172;2023-02-19T19:11:59;12.00;45.50
431;DHT22;202;48.764;9.172;2023-02-19T19:14:29;12.00;45.50
431;DHT22;202;48.764;9.172;2023-02-19T19:16:56;12.10;45.50
431;DHT22;202;48.764;9.172;2023-02-19T19:19:26;12.10;45.50
431;DHT22;202;48.764;9.172;2023-02-19T19:21:57;12.10;45.50
431;DHT22;202;48.764;9.172;2023-02-19T19:24:28;12.10;45.70
431;DHT22;202;48.764;9.172;2023-02-19T19:26:55;12.00;45.50
431;DHT22;202;48.764;9.172;2023-02-19T19:29:24;12.10;45.60
431;DHT22;202;48.764;9.172;2023-02-19T19:32:04;12.00;45.50
431;DHT22;202;48.764;9.172;2023-02-19T19:34:31;12.10;45.50
431;DHT22;202;48.764;9.172;2023-02-19T19:37:01;12.10;45.50
431;DHT22;202;48.764;9.172;2023-02-19T19:39:28;12.00;45.50
431;DHT22;202;48.764;9.172;2023-02-19T19:42:09;12.00;45.50
431;DHT22;202;48.764;9.172;2023-02-19T19:44:37;12.00;45.50
431;DHT22;202;48.764;9.172;2023-02-19T19:47:06;12.00;45.50
431;DHT22;202;48.764;9.172;2023-02-19T19:49:36;12.00;45.50
431;DHT22;202;48.764;9.172;2023-02-19T19:52:07;12.00;45.50
431;DHT22;202;48.764;9.172;2023-02-19T19:54:35;12.00;45.50
431;DHT22;202;48.764;9.172;2023-02-19T19:57:12;12.00;45.50
431;DHT22;202;48.764;9.172;2023-02-19T19:59:41;12.10;45.50
431;DHT22;202;48.764;9.172;2023-02-19T20:02:12;12.10;45.50
431;DHT22;202;48.764;9.172;2023-02-19T20:04:45;12.00;45.50
431;DHT22;202;48.764;9.172;2023-02-19T20:07:18;12.00;45.50
431;DHT22;202;48.764;9.172;2023-02-19T20:09:51;12.00;45.50
431;DHT22;202;48.764;9.172;2023-02-19T20:12:29;12.00;45.50
431;DHT22;202;48.764;9.172;2023-02-19T20:14:57;11.90;45.40
431;DHT22;202;48.764;9.172;2023-02-19T20:17:30;11.90;45.90
431;DHT22;202;48.764;9.172;2023-02-19T20:20:04;12.00;45.60
431;DHT22;202;48.764;9.172;2023-02-19T20:22:38;11.90;45.40
431;DHT22;202;48.764;9.172;2023-02-19T20:25:06;11.90;45.90
431;DHT22;202;48.764;9.172;2023-02-19T20:27:37;11.80;46.00
431;DHT22;202;48.764;9.172;2023-02-19T20:30:35;11.80;46.30
431;DHT22;202;48.764;9.172;2023-02-19T20:33:06;11.70;46.20
431;DHT22;202;48.764;9.172;2023-02-19T20:35:46;11.80;46.20
431;DHT22;202;48.764;9.172;2023-02-19T20:38:18;11.60;46.90
431;DHT22;202;48.764;9.172;2023-02-19T20:40:54;11.60;46.90
431;DHT22;202;48.764;9.172;2023-02-19T20:43:27;11.60;47.20
431;DHT22;202;48.764;9.172;2023-02-19T20:45:57;11.60;47.00
431;DHT22;202;48.764;9.172;2023-02-19T20:48:25;11.60;47.30
431;DHT22;202;48.764;9.172;2023-02-19T20:50:53;11.60;47.40
431;DHT22;202;48.764;9.172;2023-02-19T20:53:32;11.50;47.40
431;DHT22;202;48.764;9.172;2023-02-19T20:56:12;11.50;47.90
431;DHT22;202;48.764;9.172;2023-02-19T20:58:43;11.50;47.90
431;DHT22;202;48.764;9.172;2023-02-19T21:01:13;11.60;47.90
431;DHT22;202;48.764;9.172;2023-02-19T21:03:44;11.60;47.70
431;DHT22;202;48.764;9.172;2023-02-19T21:06:13;11.60;47.60
431;DHT22;202;48.764;9.172;2023-02-19T21:08:48;11.50;47.80
431;DHT22;202;48.764;9.172;2023-02-19T21:11:25;11.60;48.10